createdAt,value
2019-06-15T00:00:05.825Z,636.90
2019-06-15T00:01:05.820Z,453.00
2019-06-15T00:02:05.870Z,493.60
2019-06-15T00:03:05.935Z,494.00
2019-06-15T00:04:05.976Z,453.60
2019-06-15T00:05:05.991Z,463.50
2019-06-15T00:06:06.062Z,425.30
2019-06-15T00:07:06.116Z,480.50
2019-06-15T00:08:06.182Z,574.60
2019-06-15T00:09:06.185Z,433.70
2019-06-15T00:10:06.240Z,393.00
2019-06-15T00:11:06.285Z,330.00
2019-06-15T00:12:06.323Z,420.30
2019-06-15T00:13:06.386Z,435.60
2019-06-15T00:14:06.448Z,466.30
2019-06-15T00:15:06.478Z,377.00
2019-06-15T00:16:06.485Z,417.90
2019-06-15T00:17:06.564Z,310.40
2019-06-15T00:18:06.601Z,373.90
2019-06-15T00:19:06.690Z,379.50
2019-06-15T00:20:06.699Z,343.30
2019-06-15T00:21:06.720Z,309.30
2019-06-15T00:22:06.784Z,326.20
2019-06-15T00:23:06.870Z,333.30
2019-06-15T00:24:06.878Z,434.60
2019-06-15T00:25:06.940Z,275.50
2019-06-15T00:26:06.966Z,447.20
2019-06-15T00:27:07.033Z,331.00
2019-06-15T00:28:07.051Z,278.90
2019-06-15T00:29:07.126Z,385.40
2019-06-15T00:30:07.170Z,472.10
2019-06-15T00:31:07.228Z,370.20
2019-06-15T00:32:07.252Z,399.10
2019-06-15T00:33:07.317Z,356.30
2019-06-15T00:34:07.341Z,307.50
2019-06-15T00:35:07.397Z,298.90
2019-06-15T00:36:07.426Z,274.30
2019-06-15T00:37:07.493Z,325.60
2019-06-15T00:38:07.536Z,283.10
2019-06-15T00:39:07.555Z,322.90
2019-06-15T00:40:07.606Z,538.70
2019-06-15T00:41:07.667Z,392.50
2019-06-15T00:42:07.719Z,399.30
2019-06-15T00:43:07.755Z,361.90
2019-06-15T00:44:07.818Z,387.60
2019-06-15T00:45:07.844Z,424.80
2019-06-15T00:46:07.887Z,440.10
2019-06-15T00:47:07.952Z,399.90
2019-06-15T00:48:08.025Z,355.50
2019-06-15T00:49:08.034Z,497.00
2019-06-15T00:50:08.064Z,328.00
2019-06-15T00:51:08.110Z,340.70
2019-06-15T00:52:08.168Z,438.30
2019-06-15T00:53:08.185Z,383.10
2019-06-15T00:54:08.235Z,477.00
2019-06-15T00:55:08.279Z,451.70
2019-06-15T00:56:08.345Z,466.90
2019-06-15T00:57:08.378Z,469.40
2019-06-15T00:58:08.437Z,399.30
2019-06-15T00:59:08.474Z,438.20
2019-06-15T01:00:08.526Z,489.00
2019-06-15T01:01:08.574Z,298.90
2019-06-15T01:02:08.601Z,319.10
2019-06-15T01:03:08.666Z,412.50
2019-06-15T01:04:08.707Z,393.30
2019-06-15T01:05:08.752Z,338.50
2019-06-15T01:06:08.793Z,485.20
2019-06-15T01:07:08.851Z,381.50
2019-06-15T01:08:08.880Z,345.00
2019-06-15T01:09:08.919Z,367.40
2019-06-15T01:10:08.955Z,359.90
2019-06-15T01:11:09.024Z,576.40
2019-06-15T01:12:09.045Z,441.20
2019-06-15T01:13:09.123Z,343.60
2019-06-15T01:14:09.231Z,400.00
2019-06-15T01:15:09.200Z,327.10
2019-06-15T01:16:09.230Z,411.50
2019-06-15T01:17:09.281Z,252.60
2019-06-15T01:18:09.349Z,300.10
2019-06-15T01:19:09.393Z,237.00
2019-06-15T01:20:09.441Z,325.40
2019-06-15T01:21:09.469Z,283.20
2019-06-15T01:22:09.518Z,321.00
2019-06-15T01:23:09.563Z,240.10
2019-06-15T01:24:09.610Z,505.70
2019-06-15T01:25:09.657Z,218.20
2019-06-15T01:26:09.717Z,234.40
2019-06-15T01:27:09.730Z,188.90
2019-06-15T01:28:09.796Z,194.10
2019-06-15T01:29:09.869Z,224.50
2019-06-15T01:30:09.872Z,169.10
2019-06-15T01:31:09.975Z,153.70
2019-06-15T01:32:09.950Z,180.90
2019-06-15T01:33:10.029Z,201.20
2019-06-15T01:34:10.085Z,255.70
2019-06-15T01:35:10.102Z,206.00
2019-06-15T01:36:10.141Z,147.20
2019-06-15T01:37:10.195Z,153.50
2019-06-15T01:38:10.251Z,253.70
2019-06-15T01:39:10.302Z,159.10
2019-06-15T01:40:10.341Z,174.70
2019-06-15T01:41:10.405Z,144.10
2019-06-15T01:42:10.457Z,152.00
2019-06-15T01:43:10.486Z,248.80
2019-06-15T01:44:10.532Z,158.80
2019-06-15T01:45:10.627Z,194.20
2019-06-15T01:46:10.618Z,261.10
2019-06-15T01:47:10.664Z,253.30
2019-06-15T01:48:10.705Z,274.30
2019-06-15T01:49:10.756Z,264.30
2019-06-15T01:50:10.776Z,306.30
2019-06-15T01:51:10.850Z,376.70
2019-06-15T01:52:10.899Z,328.00
2019-06-15T01:53:10.917Z,297.00
2019-06-15T01:54:10.962Z,314.00
2019-06-15T01:55:20.582Z,305.20
2019-06-15T01:56:11.064Z,321.30
2019-06-15T01:57:11.118Z,284.40
2019-06-15T01:58:11.162Z,264.00
2019-06-15T01:59:11.211Z,276.60
2019-06-15T02:00:11.252Z,271.20
2019-06-15T02:01:11.316Z,304.90
2019-06-15T02:02:11.378Z,382.30
2019-06-15T02:03:11.376Z,299.30
2019-06-15T02:04:11.433Z,263.40
2019-06-15T02:05:11.472Z,246.80
2019-06-15T02:06:11.532Z,255.30
2019-06-15T02:07:11.548Z,244.90
2019-06-15T02:08:11.631Z,260.70
2019-06-15T02:09:11.661Z,293.40
2019-06-15T02:10:11.695Z,289.20
2019-06-15T02:11:11.739Z,348.50
2019-06-15T02:12:11.802Z,368.20
2019-06-15T02:13:11.816Z,411.90
2019-06-15T02:14:11.883Z,463.00
2019-06-15T02:15:11.924Z,775.20
2019-06-15T02:16:11.964Z,765.00
2019-06-15T02:17:11.989Z,1102.60
2019-06-15T02:18:12.062Z,1061.00
2019-06-15T02:19:12.115Z,1033.30
2019-06-15T02:20:12.133Z,1090.70
2019-06-15T02:21:12.187Z,1099.50
2019-06-15T02:22:12.246Z,857.50
2019-06-15T02:23:12.277Z,708.70
2019-06-15T02:24:12.334Z,566.10
2019-06-15T02:25:12.378Z,680.10
2019-06-15T02:26:12.425Z,836.70
2019-06-15T02:27:12.490Z,796.90
2019-06-15T02:28:12.505Z,624.60
2019-06-15T02:29:12.540Z,570.20
2019-06-15T02:30:12.623Z,597.60
2019-06-15T02:31:12.650Z,518.40
2019-06-15T02:32:12.727Z,496.30
2019-06-15T02:33:12.750Z,424.30
2019-06-15T02:34:12.779Z,454.80
2019-06-15T02:35:12.828Z,380.10
2019-06-15T02:36:12.886Z,370.70
2019-06-15T02:37:12.943Z,474.90
2019-06-15T02:38:12.974Z,656.60
2019-06-15T02:39:13.013Z,682.40
2019-06-15T02:40:13.059Z,822.40
2019-06-15T02:41:13.089Z,774.10
2019-06-15T02:42:13.129Z,930.60
2019-06-15T02:43:13.194Z,938.70
2019-06-15T02:44:13.230Z,1033.80
2019-06-15T02:45:13.303Z,1000.20
2019-06-15T02:46:13.328Z,1063.40
2019-06-15T02:47:13.367Z,1730.20
2019-06-15T02:48:13.454Z,1170.10
2019-06-15T02:49:13.495Z,1245.30
2019-06-15T02:50:13.505Z,1219.30
2019-06-15T02:51:13.551Z,1814.80
2019-06-15T02:52:13.586Z,1265.00
2019-06-15T02:53:13.639Z,1300.10
2019-06-15T02:54:13.698Z,1270.20
2019-06-15T02:55:13.745Z,1479.90
2019-06-15T02:56:13.782Z,1240.20
2019-06-15T02:57:13.812Z,1245.00
2019-06-15T02:58:13.880Z,1229.80
2019-06-15T02:59:13.920Z,1213.90
2019-06-15T03:00:13.981Z,1227.70
2019-06-15T03:01:14.019Z,1719.00
2019-06-15T03:02:14.063Z,1535.50
2019-06-15T03:03:14.089Z,1394.20
2019-06-15T03:04:14.133Z,1355.70
2019-06-15T03:05:14.178Z,1295.70
2019-06-15T03:06:14.237Z,1285.80
2019-06-15T03:07:14.268Z,1363.30
2019-06-15T03:08:14.331Z,1300.90
2019-06-15T03:09:14.349Z,1210.00
2019-06-15T03:10:14.396Z,1583.80
2019-06-15T03:11:14.481Z,1223.40
2019-06-15T03:12:14.499Z,1236.30
2019-06-15T03:13:14.576Z,1276.30
2019-06-15T03:14:14.588Z,1255.30
2019-06-15T03:15:14.640Z,1274.20
2019-06-15T03:16:14.665Z,1225.90
2019-06-15T03:17:14.721Z,1737.70
2019-06-15T03:18:14.802Z,1364.60
2019-06-15T03:19:14.821Z,1510.00
2019-06-15T03:20:14.885Z,1365.70
2019-06-15T03:21:14.912Z,1327.70
2019-06-15T03:22:14.985Z,1389.10
2019-06-15T03:23:15.006Z,1347.00
2019-06-15T03:24:15.041Z,1508.20
2019-06-15T03:25:15.111Z,1243.60
2019-06-15T03:26:15.145Z,1999.90
2019-06-15T03:27:15.190Z,1507.00
2019-06-15T03:28:15.239Z,1498.10
2019-06-15T03:29:15.280Z,1552.60
2019-06-15T03:30:15.313Z,1497.50
2019-06-15T03:31:15.371Z,1393.60
2019-06-15T03:32:15.404Z,1378.40
2019-06-15T03:33:15.444Z,1274.30
2019-06-15T03:34:15.496Z,1354.80
2019-06-15T03:35:15.570Z,1400.30
2019-06-15T03:36:15.589Z,1430.90
2019-06-15T03:37:15.617Z,1353.20
2019-06-15T03:38:15.657Z,1332.70
2019-06-15T03:39:15.749Z,1270.20
2019-06-15T03:40:15.772Z,729.20
2019-06-15T03:41:15.814Z,862.00
2019-06-15T03:42:15.838Z,892.50
2019-06-15T03:43:15.925Z,953.90
2019-06-15T03:44:15.940Z,1134.20
2019-06-15T03:45:16.028Z,1162.90
2019-06-15T03:46:16.043Z,1130.60
2019-06-15T03:47:16.081Z,1154.90
2019-06-15T03:48:16.132Z,1112.30
2019-06-15T03:49:16.167Z,1091.20
2019-06-15T03:50:16.197Z,1126.50
2019-06-15T03:51:16.254Z,1097.40
2019-06-15T03:52:16.304Z,1102.30
2019-06-15T03:53:16.328Z,1087.20
2019-06-15T03:54:16.384Z,1099.20
2019-06-15T03:55:16.430Z,1134.40
2019-06-15T03:56:21.537Z,1126.20
2019-06-15T03:57:16.535Z,1110.70
2019-06-15T03:58:16.554Z,1072.90
2019-06-15T03:59:16.600Z,1061.80
2019-06-15T04:00:16.673Z,1070.40
2019-06-15T04:01:16.696Z,1174.10
2019-06-15T04:02:16.734Z,1126.20
2019-06-15T04:03:16.826Z,1082.90
2019-06-15T04:04:16.865Z,1116.90
2019-06-15T04:05:16.927Z,1104.90
2019-06-15T04:06:16.911Z,1185.00
2019-06-15T04:07:16.969Z,1180.00
2019-06-15T04:08:17.010Z,1362.30
2019-06-15T04:09:17.027Z,1416.80
2019-06-15T04:10:17.120Z,1754.00
2019-06-15T04:11:17.143Z,1460.90
2019-06-15T04:12:17.185Z,1363.20
2019-06-15T04:13:17.271Z,1681.10
2019-06-15T04:14:17.276Z,1182.90
2019-06-15T04:15:17.352Z,1111.60
2019-06-15T04:16:17.369Z,1713.90
2019-06-15T04:17:17.430Z,1679.80
2019-06-15T04:18:17.465Z,1827.90
2019-06-15T04:19:17.513Z,1850.10
2019-06-15T04:20:17.541Z,1795.50
2019-06-15T04:21:17.585Z,1786.50
2019-06-15T04:22:17.641Z,1915.60
2019-06-15T04:23:17.677Z,1128.90
2019-06-15T04:24:17.727Z,1104.20
2019-06-15T04:25:17.770Z,1209.40
2019-06-15T04:26:17.847Z,1020.90
2019-06-15T04:27:17.853Z,991.90
2019-06-15T04:28:17.903Z,1055.80
2019-06-15T04:29:17.941Z,930.80
2019-06-15T04:30:18.047Z,1003.70
2019-06-15T04:31:18.030Z,952.60
2019-06-15T04:32:18.080Z,882.10
2019-06-15T04:33:18.146Z,949.70
2019-06-15T04:34:18.149Z,981.30
2019-06-15T04:35:18.223Z,1049.30
2019-06-15T04:36:18.271Z,1129.20
2019-06-15T04:37:18.323Z,1229.10
2019-06-15T04:38:18.340Z,1062.80
2019-06-15T04:39:18.387Z,1027.80
2019-06-15T04:40:18.490Z,1053.00
2019-06-15T04:41:18.502Z,1038.30
2019-06-15T04:42:18.531Z,1156.60
2019-06-15T04:43:18.571Z,1064.40
2019-06-15T04:44:18.633Z,1067.50
2019-06-15T04:45:18.667Z,972.30
2019-06-15T04:46:18.714Z,1012.70
2019-06-15T04:47:18.745Z,995.40
2019-06-15T04:48:18.790Z,996.70
2019-06-15T04:49:18.833Z,1129.00
2019-06-15T04:50:18.887Z,1024.60
2019-06-15T04:51:18.951Z,1044.90
2019-06-15T04:52:18.985Z,1030.20
2019-06-15T04:53:19.017Z,976.10
2019-06-15T04:54:19.067Z,1054.50
2019-06-15T04:55:19.100Z,1106.20
2019-06-15T04:56:19.159Z,1074.10
2019-06-15T04:57:19.193Z,1130.10
2019-06-15T04:58:19.223Z,1108.90
2019-06-15T04:59:19.312Z,1146.00
2019-06-15T05:00:19.352Z,1111.80
2019-06-15T05:01:19.363Z,1045.30
2019-06-15T05:02:19.453Z,1011.00
2019-06-15T05:03:19.449Z,971.10
2019-06-15T05:04:19.508Z,940.90
2019-06-15T05:05:19.539Z,996.00
2019-06-15T05:06:19.579Z,902.90
2019-06-15T05:07:19.649Z,972.30
2019-06-15T05:08:19.682Z,1080.90
2019-06-15T05:09:19.727Z,1090.80
2019-06-15T05:10:19.762Z,1091.80
2019-06-15T05:11:19.819Z,1121.60
2019-06-15T05:12:19.861Z,1144.10
2019-06-15T05:13:19.907Z,1183.50
2019-06-15T05:14:19.932Z,1160.20
2019-06-15T05:15:19.979Z,1329.60
2019-06-15T05:16:20.042Z,1171.40
2019-06-15T05:17:20.065Z,1170.20
2019-06-15T05:18:20.151Z,1190.80
2019-06-15T05:19:20.176Z,1203.30
2019-06-15T05:20:20.217Z,1179.20
2019-06-15T05:21:20.255Z,1196.40
2019-06-15T05:22:20.304Z,1183.00
2019-06-15T05:23:20.362Z,1182.00
2019-06-15T05:24:20.406Z,1175.50
2019-06-15T05:25:20.442Z,1199.10
2019-06-15T05:26:20.476Z,1204.90
2019-06-15T05:27:20.505Z,1207.80
2019-06-15T05:28:20.562Z,1223.70
2019-06-15T05:29:20.617Z,1211.10
2019-06-15T05:30:20.659Z,1196.80
2019-06-15T05:31:20.699Z,1193.90
2019-06-15T05:32:20.754Z,1212.20
2019-06-15T05:33:20.808Z,1205.00
2019-06-15T05:34:20.832Z,1200.30
2019-06-15T05:35:23.515Z,1222.10
2019-06-15T05:36:20.953Z,1213.40
2019-06-15T05:37:20.952Z,1225.20
2019-06-15T05:38:21.022Z,1216.10
2019-06-15T05:39:21.050Z,1236.30
2019-06-15T05:40:21.136Z,1240.90
2019-06-15T05:41:21.128Z,1244.30
2019-06-15T05:42:21.177Z,1523.80
2019-06-15T05:43:21.253Z,1215.90
2019-06-15T05:44:21.288Z,804.70
2019-06-15T05:45:21.321Z,832.00
2019-06-15T05:46:21.372Z,534.90
2019-06-15T05:47:21.423Z,536.40
2019-06-15T05:48:21.452Z,491.30
2019-06-15T05:49:21.489Z,1096.20
2019-06-15T05:50:21.551Z,1216.50
2019-06-15T05:51:21.595Z,1188.70
2019-06-15T05:52:21.615Z,1154.80
2019-06-15T05:53:21.673Z,1159.80
2019-06-15T05:54:21.718Z,1153.80
2019-06-15T05:55:21.759Z,1119.70
2019-06-15T05:56:21.803Z,1116.40
2019-06-15T05:57:22.141Z,1086.80
2019-06-15T05:58:21.898Z,1063.50
2019-06-15T05:59:21.946Z,1067.30
2019-06-15T06:00:22.014Z,1022.00
2019-06-15T06:01:22.044Z,1003.20
2019-06-15T06:02:24.768Z,960.10
2019-06-15T06:03:22.127Z,1032.20
2019-06-15T06:04:22.180Z,1035.30
2019-06-15T06:05:22.186Z,1058.00
2019-06-15T06:06:22.272Z,1035.20
2019-06-15T06:07:22.280Z,1067.50
2019-06-15T06:08:22.342Z,1038.60
2019-06-15T06:09:22.381Z,1039.30
2019-06-15T06:10:22.425Z,1091.10
2019-06-15T06:11:22.477Z,1007.70
2019-06-15T06:12:22.512Z,1021.30
2019-06-15T06:13:22.567Z,997.10
2019-06-15T06:14:22.614Z,1048.90
2019-06-15T06:15:22.648Z,1089.70
2019-06-15T06:16:22.689Z,1129.60
2019-06-15T06:17:22.740Z,1122.00
2019-06-15T06:18:22.783Z,1104.30
2019-06-15T06:19:22.808Z,1098.50
2019-06-15T06:20:22.895Z,1138.00
2019-06-15T06:21:22.942Z,1191.30
2019-06-15T06:22:22.951Z,1118.00
2019-06-15T06:23:22.987Z,1109.90
2019-06-15T06:24:23.037Z,1215.10
2019-06-15T06:25:23.074Z,1220.70
2019-06-15T06:26:23.129Z,1213.20
2019-06-15T06:27:35.845Z,1202.70
2019-06-15T06:28:23.210Z,1191.10
2019-06-15T06:29:23.276Z,1235.50
2019-06-15T06:30:23.294Z,1177.00
2019-06-15T06:31:23.356Z,1137.80
2019-06-15T06:32:23.383Z,1128.30
2019-06-15T06:33:23.440Z,1070.00
2019-06-15T06:34:23.469Z,957.70
2019-06-15T06:35:23.510Z,884.80
2019-06-15T06:36:23.574Z,879.10
2019-06-15T06:37:23.627Z,828.90
2019-06-15T06:38:23.649Z,827.50
2019-06-15T06:39:23.681Z,937.20
2019-06-15T06:40:23.729Z,848.40
2019-06-15T06:41:23.778Z,856.50
2019-06-15T06:42:23.812Z,846.60
2019-06-15T06:43:23.859Z,765.80
2019-06-15T06:44:23.910Z,817.20
2019-06-15T06:45:23.960Z,712.60
2019-06-15T06:46:23.987Z,832.90
2019-06-15T06:47:24.046Z,890.30
2019-06-15T06:48:24.086Z,827.10
2019-06-15T06:49:24.110Z,824.90
2019-06-15T06:50:24.202Z,818.20
2019-06-15T06:51:24.210Z,690.00
2019-06-15T06:52:24.252Z,782.70
2019-06-15T06:53:24.296Z,758.20
2019-06-15T06:54:24.418Z,755.20
2019-06-15T06:55:24.386Z,793.50
2019-06-15T06:56:24.444Z,856.00
2019-06-15T06:57:24.453Z,936.90
2019-06-15T06:58:24.523Z,944.20
2019-06-15T06:59:24.568Z,977.00
2019-06-15T07:00:24.606Z,1093.60
2019-06-15T07:01:24.655Z,1113.00
2019-06-15T07:02:24.686Z,1159.80
2019-06-15T07:03:24.760Z,548.00
2019-06-15T07:04:24.798Z,521.00
2019-06-15T07:05:24.816Z,544.50
2019-06-15T07:06:24.875Z,575.30
2019-06-15T07:07:24.944Z,510.00
2019-06-15T07:08:24.943Z,510.00
2019-06-15T07:09:25.002Z,533.90
2019-06-15T07:10:25.027Z,564.80
2019-06-15T07:11:25.091Z,589.60
2019-06-15T07:12:25.105Z,609.90
2019-06-15T07:13:25.206Z,612.20
2019-06-15T07:14:25.243Z,636.90
2019-06-15T07:15:25.252Z,625.60
2019-06-15T07:16:25.273Z,731.50
2019-06-15T07:17:25.357Z,828.20
2019-06-15T07:18:25.391Z,803.60
2019-06-15T07:19:25.414Z,918.70
2019-06-15T07:20:25.481Z,774.00
2019-06-15T07:21:25.504Z,810.60
2019-06-15T07:22:25.549Z,834.20
2019-06-15T07:23:25.635Z,999.40
2019-06-15T07:24:25.677Z,1003.20
2019-06-15T07:25:25.696Z,979.80
2019-06-15T07:26:25.740Z,1025.70
2019-06-15T07:27:25.756Z,1075.00
2019-06-15T07:28:25.824Z,1006.30
2019-06-15T07:29:25.845Z,945.60
2019-06-15T07:30:25.891Z,929.80
2019-06-15T07:31:25.931Z,1157.20
2019-06-15T07:32:25.993Z,1500.50
2019-06-15T07:33:26.031Z,1248.40
2019-06-15T07:34:26.099Z,1206.90
2019-06-15T07:35:26.115Z,1203.40
2019-06-15T07:36:26.157Z,1155.20
2019-06-15T07:37:26.227Z,1187.60
2019-06-15T07:38:26.255Z,1064.00
2019-06-15T07:39:26.311Z,919.20
2019-06-15T07:40:26.356Z,820.50
2019-06-15T07:41:26.380Z,806.90
2019-06-15T07:42:26.430Z,800.80
2019-06-15T07:43:26.467Z,805.60
2019-06-15T07:44:26.508Z,767.50
2019-06-15T07:45:26.539Z,780.40
2019-06-15T07:46:26.609Z,772.70
2019-06-15T07:47:26.643Z,743.80
2019-06-15T07:48:26.706Z,747.10
2019-06-15T07:49:26.734Z,701.40
2019-06-15T07:50:26.754Z,721.80
2019-06-15T07:51:26.809Z,742.70
2019-06-15T07:52:26.849Z,819.60
2019-06-15T07:53:26.881Z,787.30
2019-06-15T07:54:26.916Z,831.10
2019-06-15T07:55:26.993Z,819.90
2019-06-15T07:56:27.067Z,781.00
2019-06-15T07:57:27.080Z,790.40
2019-06-15T07:58:27.095Z,760.60
2019-06-15T07:59:27.157Z,722.00
2019-06-15T08:00:27.181Z,735.00
2019-06-15T08:01:27.229Z,772.00
2019-06-15T08:02:27.274Z,751.00
2019-06-15T08:03:27.394Z,746.30
2019-06-15T08:04:27.361Z,764.80
2019-06-15T08:05:27.410Z,766.00
2019-06-15T08:06:27.480Z,744.40
2019-06-15T08:07:27.522Z,749.90
2019-06-15T08:08:27.536Z,754.70
2019-06-15T08:09:27.601Z,719.60
2019-06-15T08:10:27.622Z,715.70
2019-06-15T08:11:27.679Z,723.00
2019-06-15T08:12:27.719Z,722.80
2019-06-15T08:13:27.761Z,738.40
2019-06-15T08:14:27.808Z,718.10
2019-06-15T08:15:27.871Z,741.20
2019-06-15T08:16:27.894Z,756.70
2019-06-15T08:17:27.923Z,800.00
2019-06-15T08:18:27.969Z,818.00
2019-06-15T08:19:27.994Z,883.10
2019-06-15T08:20:28.084Z,928.20
2019-06-15T08:21:28.094Z,1024.60
2019-06-15T08:22:28.166Z,1036.00
2019-06-15T08:23:28.202Z,1081.00
2019-06-15T08:24:28.211Z,1128.50
2019-06-15T08:25:28.276Z,1045.90
2019-06-15T08:26:28.311Z,955.10
2019-06-15T08:27:28.354Z,908.00
2019-06-15T08:28:39.868Z,767.70
2019-06-15T08:29:28.431Z,700.00
2019-06-15T08:30:28.485Z,538.80
2019-06-15T08:31:28.539Z,562.70
2019-06-15T08:32:28.614Z,528.10
2019-06-15T08:33:28.590Z,567.70
2019-06-15T08:34:28.662Z,575.20
2019-06-15T08:35:28.687Z,580.90
2019-06-15T08:36:28.745Z,580.20
2019-06-15T08:37:28.779Z,558.60
2019-06-15T08:38:28.821Z,529.70
2019-06-15T08:39:28.876Z,542.90
2019-06-15T08:40:28.903Z,511.10
2019-06-15T08:41:28.930Z,492.00
2019-06-15T08:42:28.989Z,610.10
2019-06-15T08:43:29.020Z,651.20
2019-06-15T08:44:29.071Z,622.30
2019-06-15T08:45:29.113Z,611.30
2019-06-15T08:46:29.178Z,633.40
2019-06-15T08:47:29.195Z,629.20
2019-06-15T08:48:29.247Z,598.60
2019-06-15T08:49:29.306Z,604.20
2019-06-15T08:50:29.349Z,639.10
2019-06-15T08:51:29.424Z,634.60
2019-06-15T08:52:29.413Z,636.00
2019-06-15T08:53:29.458Z,621.00
2019-06-15T08:54:29.509Z,619.80
2019-06-15T08:55:29.532Z,664.70
2019-06-15T08:56:29.614Z,789.60
2019-06-15T08:57:29.657Z,638.20
2019-06-15T08:58:29.689Z,665.10
2019-06-15T08:59:29.731Z,682.50
2019-06-15T09:00:29.774Z,667.80
2019-06-15T09:01:29.804Z,670.10
2019-06-15T09:02:29.856Z,624.70
2019-06-15T09:03:29.939Z,631.70
2019-06-15T09:04:29.939Z,597.60
2019-06-15T09:05:29.997Z,559.40
2019-06-15T09:06:30.023Z,520.80
2019-06-15T09:07:30.063Z,512.80
2019-06-15T09:08:30.104Z,503.60
2019-06-15T09:09:30.148Z,487.80
2019-06-15T09:10:30.193Z,487.30
2019-06-15T09:11:30.233Z,490.00
2019-06-15T09:12:30.263Z,464.60
2019-06-15T09:13:30.298Z,445.30
2019-06-15T09:14:30.353Z,481.90
2019-06-15T09:15:30.405Z,492.20
2019-06-15T09:16:30.498Z,484.60
2019-06-15T09:17:30.473Z,501.90
2019-06-15T09:18:30.530Z,454.80
2019-06-15T09:19:30.562Z,478.40
2019-06-15T09:20:30.613Z,787.80
2019-06-15T09:21:30.645Z,462.00
2019-06-15T09:22:30.680Z,390.50
2019-06-15T09:23:30.749Z,387.80
2019-06-15T09:24:30.795Z,500.90
2019-06-15T09:25:30.835Z,373.40
2019-06-15T09:26:30.869Z,350.80
2019-06-15T09:27:30.915Z,303.80
2019-06-15T09:28:30.949Z,500.40
2019-06-15T09:29:30.998Z,351.70
2019-06-15T09:30:31.017Z,369.20
2019-06-15T09:31:31.067Z,394.60
2019-06-15T09:32:31.135Z,372.30
2019-06-15T09:33:31.187Z,366.60
2019-06-15T09:34:31.181Z,352.60
2019-06-15T09:35:31.227Z,325.50
2019-06-15T09:36:31.301Z,300.40
2019-06-15T09:37:31.345Z,306.60
2019-06-15T09:38:31.401Z,502.70
2019-06-15T09:39:31.400Z,726.10
2019-06-15T09:40:31.475Z,745.10
2019-06-15T09:41:31.504Z,753.90
2019-06-15T09:42:31.703Z,785.30
2019-06-15T09:43:31.580Z,705.10
2019-06-15T09:44:31.611Z,678.60
2019-06-15T09:45:33.011Z,616.50
2019-06-15T09:46:31.701Z,574.10
2019-06-15T09:47:31.723Z,516.60
2019-06-15T09:48:31.777Z,463.80
2019-06-15T09:49:31.833Z,486.30
2019-06-15T09:50:31.891Z,474.60
2019-06-15T09:51:31.970Z,538.80
2019-06-15T09:52:31.947Z,409.70
2019-06-15T09:53:32.037Z,388.50
2019-06-15T09:54:32.045Z,484.10
2019-06-15T09:55:32.102Z,415.80
2019-06-15T09:56:32.104Z,405.80
2019-06-15T09:57:32.187Z,419.10
2019-06-15T09:58:32.200Z,610.40
2019-06-15T09:59:32.259Z,469.20
2019-06-15T10:00:32.288Z,494.00
2019-06-15T10:01:32.343Z,473.90
2019-06-15T10:02:32.410Z,510.60
2019-06-15T10:03:32.444Z,497.70
2019-06-15T10:04:32.478Z,500.30
2019-06-15T10:05:32.511Z,546.10
2019-06-15T10:06:32.565Z,496.30
2019-06-15T10:07:32.581Z,543.30
2019-06-15T10:08:32.642Z,557.60
2019-06-15T10:09:32.696Z,563.80
2019-06-15T10:10:32.737Z,648.40
2019-06-15T10:11:32.777Z,475.00
2019-06-15T10:12:32.815Z,492.20
2019-06-15T10:13:32.865Z,489.40
2019-06-15T10:14:32.880Z,467.30
2019-06-15T10:15:32.926Z,487.90
2019-06-15T10:16:32.974Z,532.30
2019-06-15T10:17:33.037Z,554.60
2019-06-15T10:18:33.066Z,531.20
2019-06-15T10:19:33.108Z,518.20
2019-06-15T10:20:33.154Z,738.30
2019-06-15T10:21:33.195Z,651.70
2019-06-15T10:22:33.272Z,684.10
2019-06-15T10:23:33.270Z,653.70
2019-06-15T10:24:33.317Z,655.90
2019-06-15T10:25:33.345Z,765.30
2019-06-15T10:26:33.389Z,719.60
2019-06-15T10:27:33.455Z,712.50
2019-06-15T10:28:33.504Z,750.60
2019-06-15T10:29:41.978Z,793.50
2019-06-15T10:30:33.561Z,767.40
2019-06-15T10:31:33.660Z,757.60
2019-06-15T10:32:33.636Z,736.50
2019-06-15T10:33:33.726Z,584.80
2019-06-15T10:34:33.752Z,605.30
2019-06-15T10:35:33.801Z,548.20
2019-06-15T10:36:33.816Z,646.00
2019-06-15T10:37:33.869Z,595.20
2019-06-15T10:38:33.968Z,730.00
2019-06-15T10:39:33.938Z,603.20
2019-06-15T10:40:33.999Z,611.70
2019-06-15T10:41:34.048Z,626.30
2019-06-15T10:42:34.113Z,676.70
2019-06-15T10:43:34.139Z,677.50
2019-06-15T10:44:34.160Z,639.60
2019-06-15T10:45:34.203Z,661.20
2019-06-15T10:46:34.260Z,698.80
2019-06-15T10:47:34.281Z,733.20
2019-06-15T10:48:34.343Z,673.10
2019-06-15T10:49:34.386Z,740.20
2019-06-15T10:50:34.461Z,723.10
2019-06-15T10:51:34.452Z,653.80
2019-06-15T10:52:34.492Z,689.70
2019-06-15T10:53:34.550Z,676.80
2019-06-15T10:54:34.603Z,646.50
2019-06-15T10:55:34.635Z,613.40
2019-06-15T10:56:34.680Z,635.70
2019-06-15T10:57:34.723Z,683.10
2019-06-15T10:58:34.793Z,628.40
2019-06-15T10:59:34.816Z,658.10
2019-06-15T11:00:34.897Z,680.80
2019-06-15T11:01:34.907Z,745.10
2019-06-15T11:02:34.959Z,1037.30
2019-06-15T11:03:34.988Z,995.50
2019-06-15T11:04:35.044Z,926.20
2019-06-15T11:05:35.113Z,831.70
2019-06-15T11:06:35.151Z,843.60
2019-06-15T11:07:35.187Z,873.40
2019-06-15T11:08:35.212Z,980.80
2019-06-15T11:09:35.258Z,1034.50
2019-06-15T11:10:35.341Z,1158.00
2019-06-15T11:11:35.363Z,1158.40
2019-06-15T11:12:45.717Z,1219.10
2019-06-15T11:13:35.456Z,1261.50
2019-06-15T11:14:35.516Z,1197.90
2019-06-15T11:15:35.570Z,1477.50
2019-06-15T11:16:35.609Z,1242.70
2019-06-15T11:17:35.654Z,1231.20
2019-06-15T11:18:35.681Z,1241.70
2019-06-15T11:19:35.785Z,1214.80
2019-06-15T11:20:35.796Z,1222.80
2019-06-15T11:21:35.828Z,1191.90
2019-06-15T11:22:35.887Z,1305.80
2019-06-15T11:23:35.955Z,1738.10
2019-06-15T11:24:35.983Z,1179.00
2019-06-15T11:25:36.022Z,1171.90
2019-06-15T11:26:36.170Z,1999.90
2019-06-15T11:27:36.131Z,1290.10
2019-06-15T11:28:36.196Z,1174.80
2019-06-15T11:29:36.252Z,1214.70
2019-06-15T11:30:36.313Z,1250.70
2019-06-15T11:31:36.339Z,1525.00
2019-06-15T11:32:36.404Z,1218.20
2019-06-15T11:33:36.447Z,1219.40
2019-06-15T11:34:36.508Z,1328.90
2019-06-15T11:35:36.539Z,1458.20
2019-06-15T11:36:36.590Z,1812.40
2019-06-15T11:37:36.646Z,1176.50
2019-06-15T11:38:36.677Z,1191.00
2019-06-15T11:39:36.765Z,1179.20
2019-06-15T11:40:36.786Z,1208.60
2019-06-15T11:41:36.862Z,1153.60
2019-06-15T11:42:36.880Z,1213.10
2019-06-15T11:43:36.939Z,1230.30
2019-06-15T11:44:37.069Z,1209.10
2019-06-15T11:45:37.047Z,1486.00
2019-06-15T11:46:37.099Z,1206.40
2019-06-15T11:47:37.172Z,1195.20
2019-06-15T11:48:37.200Z,1330.80
2019-06-15T11:49:37.231Z,1305.80
2019-06-15T11:50:37.297Z,1352.40
2019-06-15T11:51:37.353Z,1177.20
2019-06-15T11:52:37.400Z,1828.00
2019-06-15T11:53:37.482Z,1226.70
2019-06-15T11:54:37.535Z,1326.60
2019-06-15T11:55:39.803Z,1208.40
2019-06-15T11:56:37.604Z,1207.00
2019-06-15T11:57:37.664Z,1330.00
2019-06-15T11:58:37.692Z,1273.10
2019-06-15T11:59:37.768Z,1392.00
2019-06-15T12:00:37.830Z,1259.00
2019-06-15T12:01:37.882Z,1166.50
2019-06-15T12:02:37.919Z,1630.50
2019-06-15T12:03:38.007Z,1502.10
2019-06-15T12:04:38.017Z,1483.70
2019-06-15T12:05:38.073Z,1407.60
2019-06-15T12:06:38.127Z,1582.90
2019-06-15T12:07:38.181Z,1713.30
2019-06-15T12:08:38.240Z,1703.90
2019-06-15T12:09:38.291Z,1375.80
2019-06-15T12:10:38.323Z,1774.20
2019-06-15T12:11:38.390Z,1214.30
2019-06-15T12:12:38.434Z,1228.60
2019-06-15T12:13:38.488Z,1201.10
2019-06-15T12:14:38.527Z,1258.20
2019-06-15T12:15:38.578Z,1225.30
2019-06-15T12:16:38.631Z,1899.50
2019-06-15T12:17:38.705Z,1352.20
2019-06-15T12:18:38.785Z,1257.80
2019-06-15T12:19:38.795Z,1318.20